createdAt,value
2023-04-12T00:02:07.782Z,22.75
2023-04-12T00:04:37.476Z,22.67
2023-04-12T00:07:07.684Z,22.72
2023-04-12T00:09:39.306Z,22.68
2023-04-12T00:12:09.014Z,22.70
2023-04-12T00:14:38.904Z,22.74
2023-04-12T00:17:08.274Z,22.65
2023-04-12T00:19:37.897Z,22.63
2023-04-12T00:22:07.521Z,22.62
2023-04-12T00:24:36.975Z,22.59
2023-04-12T00:27:07.357Z,22.57
2023-04-12T00:29:38.260Z,22.56
2023-04-12T00:32:07.648Z,22.55
2023-04-12T00:34:37.173Z,22.56
2023-04-12T00:37:06.739Z,22.59
2023-04-12T00:39:36.008Z,22.61
2023-04-12T00:42:06.421Z,22.63
2023-04-12T00:44:36.666Z,22.61
2023-04-12T00:47:07.183Z,22.59
2023-04-12T00:49:37.180Z,22.62
2023-04-12T00:52:09.661Z,22.64
2023-04-12T00:54:39.980Z,22.62
2023-04-12T00:57:09.751Z,22.59
2023-04-12T00:59:38.932Z,22.58
2023-04-12T01:02:09.258Z,22.61
2023-04-12T01:04:39.112Z,22.65
2023-04-12T01:10:20.680Z,22.71
2023-04-12T01:13:27.171Z,22.73
2023-04-12T01:16:21.961Z,22.76
2023-04-12T01:18:55.369Z,22.83
2023-04-12T01:21:52.033Z,22.92
2023-04-12T01:24:57.228Z,22.94
2023-04-12T01:27:57.496Z,23.00
2023-04-12T01:30:29.974Z,23.06
2023-04-12T01:33:03.386Z,23.13
2023-04-12T01:35:35.422Z,23.22
2023-04-12T01:38:07.080Z,23.28
2023-04-12T01:40:37.379Z,23.37
2023-04-12T01:43:14.830Z,23.45
2023-04-12T01:45:44.731Z,23.48
2023-04-12T01:48:15.091Z,23.68
2023-04-12T01:51:01.904Z,23.87
2023-04-12T01:53:53.396Z,24.02
2023-04-12T01:56:26.123Z,24.08
2023-04-12T01:58:58.370Z,24.19
2023-04-12T02:01:30.429Z,24.36
2023-04-12T02:04:02.143Z,24.47
2023-04-12T02:06:33.114Z,24.58
2023-04-12T02:09:05.160Z,24.74
2023-04-12T02:11:35.909Z,24.96
2023-04-12T02:14:05.317Z,25.50
2023-04-12T02:16:35.451Z,26.10
2023-04-12T02:19:10.164Z,26.53
2023-04-12T02:21:47.191Z,26.93
2023-04-12T02:24:17.343Z,27.16
2023-04-12T02:26:47.446Z,27.31
2023-04-12T02:29:17.670Z,27.30
2023-04-12T02:31:49.413Z,27.26
2023-04-12T02:34:19.119Z,27.28
2023-04-12T02:36:54.998Z,27.42
2023-04-12T02:39:24.462Z,27.59
2023-04-12T02:41:54.738Z,27.86
2023-04-12T02:44:24.212Z,28.05
2023-04-12T02:47:16.426Z,27.94
2023-04-12T02:49:49.208Z,27.97
2023-04-12T02:52:20.718Z,27.95
2023-04-12T02:55:02.566Z,27.82
2023-04-12T02:57:32.411Z,27.70
2023-04-12T03:00:02.693Z,27.65
2023-04-12T03:02:42.328Z,27.59
2023-04-12T03:05:18.682Z,27.56
2023-04-12T03:07:49.232Z,27.54
2023-04-12T03:10:22.479Z,27.53
2023-04-12T03:13:17.769Z,27.56
2023-04-12T03:15:54.061Z,27.59
2023-04-12T03:18:24.751Z,27.58
2023-04-12T03:20:55.182Z,27.52
2023-04-12T03:23:24.998Z,27.64
2023-04-12T03:26:09.820Z,27.81
2023-04-12T03:28:39.418Z,27.90
2023-04-12T03:31:10.116Z,27.98
2023-04-12T03:33:45.047Z,28.02
2023-04-12T03:36:40.632Z,28.07
2023-04-12T03:39:24.683Z,28.11
2023-04-12T03:41:55.921Z,28.18
2023-04-12T03:44:30.247Z,28.26
2023-04-12T03:47:02.327Z,28.33
2023-04-12T03:49:39.476Z,28.38
2023-04-12T03:52:14.353Z,28.47
2023-04-12T03:54:47.356Z,28.63
2023-04-12T03:57:24.695Z,28.65
2023-04-12T03:59:54.577Z,28.65
2023-04-12T04:02:28.921Z,28.71
2023-04-12T04:05:00.374Z,28.72
2023-04-12T04:07:29.933Z,28.82
2023-04-12T04:10:00.453Z,28.96
2023-04-12T04:12:35.422Z,29.09
2023-04-12T04:15:06.136Z,29.15
2023-04-12T04:17:35.847Z,29.08
2023-04-12T04:20:06.862Z,29.10
2023-04-12T04:22:39.390Z,29.12
2023-04-12T04:25:09.285Z,29.21
2023-04-12T04:27:45.964Z,29.28
2023-04-12T04:30:17.453Z,29.30
2023-04-12T04:32:49.712Z,29.41
2023-04-12T04:35:22.844Z,29.51
2023-04-12T04:38:06.880Z,29.66
2023-04-12T04:40:40.355Z,29.75
2023-04-12T04:43:15.071Z,29.91
2023-04-12T04:45:47.332Z,30.13
2023-04-12T04:48:17.699Z,30.24
2023-04-12T04:50:47.457Z,30.40
2023-04-12T04:53:21.362Z,30.46
2023-04-12T04:55:51.432Z,30.80
2023-04-12T04:58:21.073Z,30.98
2023-04-12T05:00:51.297Z,31.20
2023-04-12T05:03:21.126Z,31.21
2023-04-12T05:05:52.914Z,31.34
2023-04-12T05:08:23.554Z,31.41
2023-04-12T05:10:54.518Z,31.58
2023-04-12T05:13:27.177Z,31.58
2023-04-12T05:15:56.861Z,31.53
2023-04-12T05:18:26.066Z,31.60
2023-04-12T05:20:55.918Z,31.63
2023-04-12T05:23:26.110Z,31.66
2023-04-12T05:25:55.735Z,31.68
2023-04-12T05:28:27.026Z,31.72
2023-04-12T05:30:57.023Z,31.70
2023-04-12T05:33:35.942Z,32.07
2023-04-12T05:36:07.094Z,32.39
2023-04-12T05:38:36.912Z,32.28
2023-04-12T05:41:12.398Z,32.34
2023-04-12T05:43:42.825Z,32.47
2023-04-12T05:46:12.974Z,32.65
2023-04-12T05:48:45.125Z,32.75
2023-04-12T05:51:15.612Z,33.03
2023-04-12T05:53:47.401Z,33.20
2023-04-12T05:56:18.631Z,33.17
2023-04-12T05:58:49.409Z,33.24
2023-04-12T06:01:20.878Z,33.25
2023-04-12T06:03:51.438Z,33.06
2023-04-12T06:06:21.777Z,33.63
2023-04-12T06:08:51.302Z,33.65
2023-04-12T06:11:20.660Z,33.74
2023-04-12T06:13:50.249Z,33.69
2023-04-12T06:16:19.556Z,33.68
2023-04-12T06:18:49.596Z,33.67
2023-04-12T06:21:19.720Z,33.61
2023-04-12T06:23:49.062Z,33.67
2023-04-12T06:26:19.914Z,33.41
2023-04-12T06:28:50.052Z,33.44
2023-04-12T06:31:19.871Z,33.52
2023-04-12T06:33:51.359Z,33.74
2023-04-12T06:36:21.224Z,33.98
2023-04-12T06:38:52.476Z,34.01
2023-04-12T06:41:23.428Z,34.22
2023-04-12T06:44:01.908Z,34.44
2023-04-12T06:46:31.880Z,34.33
2023-04-12T06:49:01.276Z,34.72
2023-04-12T06:51:31.651Z,34.61
2023-04-12T06:54:00.801Z,34.55
2023-04-12T06:56:30.257Z,34.53
2023-04-12T06:59:00.518Z,34.80
2023-04-12T07:01:30.824Z,34.64
2023-04-12T07:04:00.396Z,34.71
2023-04-12T07:06:30.386Z,34.82
2023-04-12T07:09:00.088Z,34.62
2023-04-12T07:11:29.775Z,34.50
2023-04-12T07:14:01.599Z,34.54
2023-04-12T07:16:35.161Z,34.76
2023-04-12T07:19:04.705Z,34.78
2023-04-12T07:21:34.165Z,34.79
2023-04-12T07:24:04.959Z,34.79
2023-04-12T07:26:34.887Z,34.88
2023-04-12T07:29:04.709Z,34.60
2023-04-12T07:31:34.207Z,34.69
2023-04-12T07:34:03.926Z,34.27
2023-04-12T07:36:33.758Z,34.36
2023-04-12T07:39:03.223Z,34.43
2023-04-12T07:41:34.158Z,34.46
2023-04-12T07:44:03.603Z,34.28
2023-04-12T07:46:33.332Z,34.11
2023-04-12T07:49:03.540Z,33.83
2023-04-12T07:51:33.922Z,33.66
2023-04-12T07:54:03.381Z,33.32
2023-04-12T07:56:36.166Z,33.40
2023-04-12T07:59:05.757Z,33.27
2023-04-12T08:01:34.876Z,33.27
2023-04-12T08:04:04.532Z,33.73
2023-04-12T08:06:35.054Z,34.05
2023-04-12T08:09:04.674Z,34.03
2023-04-12T08:11:36.435Z,34.21
2023-04-12T08:14:06.034Z,34.47
2023-04-12T08:16:36.062Z,34.59
2023-04-12T08:19:06.510Z,34.72
2023-04-12T08:21:36.232Z,34.88
2023-04-12T08:24:06.342Z,34.76
2023-04-12T08:26:36.066Z,34.90
2023-04-12T08:29:05.486Z,35.03
2023-04-12T08:31:35.834Z,35.10
2023-04-12T08:34:05.251Z,35.10
2023-04-12T08:36:34.393Z,35.12
2023-04-12T08:39:04.665Z,34.99
2023-04-12T08:41:37.771Z,34.95
2023-04-12T08:44:08.998Z,34.91
2023-04-12T08:46:38.636Z,34.84
2023-04-12T08:49:08.175Z,34.68
2023-04-12T08:51:38.915Z,34.37
2023-04-12T08:54:09.100Z,34.42
2023-04-12T08:56:38.636Z,34.61
2023-04-12T08:59:08.122Z,34.60
2023-04-12T09:01:38.826Z,34.66
2023-04-12T09:04:09.025Z,34.50
2023-04-12T09:06:38.835Z,34.64
2023-04-12T09:09:08.344Z,34.52
2023-04-12T09:11:38.688Z,34.08
2023-04-12T09:14:28.446Z,33.86
2023-04-12T09:16:58.345Z,33.78
2023-04-12T09:19:36.908Z,33.81
2023-04-12T09:22:06.860Z,33.77
2023-04-12T09:24:52.799Z,33.36
2023-04-12T09:27:22.385Z,33.53
2023-04-12T09:29:55.659Z,33.44
2023-04-12T09:32:31.200Z,33.56
2023-04-12T09:35:03.748Z,33.50
2023-04-12T09:37:36.390Z,33.46
2023-04-12T09:40:08.996Z,33.52
2023-04-12T09:42:53.502Z,33.38
2023-04-12T09:45:26.495Z,33.18
2023-04-12T09:47:56.652Z,33.58
2023-04-12T09:50:29.876Z,33.80
2023-04-12T09:53:01.111Z,33.94
2023-04-12T09:55:35.689Z,33.97
2023-04-12T09:58:06.307Z,34.08
2023-04-12T10:00:37.923Z,34.15
2023-04-12T10:03:08.785Z,34.27
2023-04-12T10:05:41.639Z,34.39
2023-04-12T10:08:14.384Z,34.39
2023-04-12T10:10:47.923Z,34.40
2023-04-12T10:13:19.275Z,33.88
2023-04-12T10:15:52.414Z,33.83
2023-04-12T10:18:21.163Z,33.72
2023-04-12T10:20:50.992Z,33.68
2023-04-12T10:23:22.357Z,33.56
2023-04-12T10:25:55.269Z,33.50
2023-04-12T10:28:25.070Z,33.16
2023-04-12T10:30:59.179Z,33.02
2023-04-12T10:33:31.759Z,32.61
2023-04-12T10:36:12.114Z,32.73
2023-04-12T10:39:11.124Z,32.87
2023-04-12T10:41:40.753Z,32.65
2023-04-12T10:44:27.870Z,32.49
2023-04-12T10:46:57.876Z,32.53
2023-04-12T10:49:28.236Z,32.20
2023-04-12T10:52:04.313Z,32.60
2023-04-12T10:54:38.813Z,32.61
2023-04-12T10:57:44.465Z,32.39
2023-04-12T11:00:15.685Z,32.32
2023-04-12T11:03:13.182Z,32.71
2023-04-12T11:06:20.052Z,32.92
2023-04-12T11:09:23.799Z,33.03
2023-04-12T11:12:19.916Z,33.15
2023-04-12T11:14:52.151Z,33.21
2023-04-12T11:17:28.074Z,33.26
2023-04-12T11:20:00.317Z,33.46
2023-04-12T11:22:32.926Z,33.32
2023-04-12T11:25:04.612Z,33.24
2023-04-12T11:27:35.527Z,33.02
2023-04-12T11:30:05.435Z,32.71
2023-04-12T11:32:42.440Z,32.43
2023-04-12T11:35:12.182Z,32.65
2023-04-12T11:37:41.474Z,32.34
2023-04-12T11:40:11.581Z,32.25
2023-04-12T11:42:42.363Z,32.02
2023-04-12T11:45:17.939Z,31.85
2023-04-12T11:47:48.603Z,31.71
2023-04-12T11:50:33.472Z,31.85
2023-04-12T11:53:15.637Z,31.59
2023-04-12T11:55:51.005Z,31.76
2023-04-12T11:58:25.215Z,31.53
2023-04-12T12:00:56.380Z,31.40
2023-04-12T12:03:27.113Z,31.36
2023-04-12T12:05:57.694Z,31.32
2023-04-12T12:08:27.779Z,31.63
2023-04-12T12:11:07.275Z,31.81
2023-04-12T12:13:56.553Z,31.86
2023-04-12T12:16:28.993Z,31.98
2023-04-12T12:18:59.104Z,32.00
2023-04-12T12:21:28.731Z,31.98
2023-04-12T12:23:59.706Z,31.83
2023-04-12T12:26:29.844Z,31.73
2023-04-12T12:29:03.030Z,31.65
2023-04-12T12:31:34.089Z,31.52
2023-04-12T12:34:06.745Z,31.42
2023-04-12T12:36:39.706Z,31.19
2023-04-12T12:39:14.162Z,31.15
2023-04-12T12:41:43.868Z,31.03
2023-04-12T12:44:13.365Z,30.81
2023-04-12T12:49:15.390Z,30.75
2023-04-12T12:51:45.530Z,30.74
2023-04-12T12:54:19.852Z,30.72
2023-04-12T12:56:54.990Z,30.75
2023-04-12T12:59:25.986Z,30.85
2023-04-12T13:01:55.454Z,30.71
2023-04-12T13:04:25.421Z,30.62
2023-04-12T13:06:54.814Z,30.57
2023-04-12T13:09:23.814Z,30.55
2023-04-12T13:11:54.051Z,30.46
2023-04-12T13:14:23.635Z,30.38
2023-04-12T13:16:53.132Z,30.34
2023-04-12T13:19:22.562Z,30.12
2023-04-12T13:21:53.290Z,29.92
2023-04-12T13:24:23.268Z,29.73
2023-04-12T13:26:52.956Z,29.56
2023-04-12T13:29:22.521Z,29.49
2023-04-12T13:31:52.392Z,29.43
2023-04-12T13:34:21.798Z,29.48
2023-04-12T13:36:51.929Z,29.55
2023-04-12T13:39:21.949Z,29.56
2023-04-12T13:41:52.002Z,29.57
2023-04-12T13:44:21.608Z,29.48
2023-04-12T13:46:51.131Z,29.39
2023-04-12T13:49:20.278Z,29.33
2023-04-12T13:51:49.650Z,29.24
2023-04-12T13:54:19.167Z,29.16
2023-04-12T13:56:48.751Z,29.11
2023-04-12T13:59:18.935Z,29.10
2023-04-12T14:01:48.419Z,29.15
2023-04-12T14:04:18.142Z,29.20
2023-04-12T14:06:47.762Z,29.23
2023-04-12T14:09:31.159Z,29.22
2023-04-12T14:12:02.564Z,29.14
2023-04-12T14:14:32.384Z,29.07
2023-04-12T14:17:02.970Z,29.06
2023-04-12T14:19:33.080Z,29.02
2023-04-12T14:22:03.562Z,28.97
2023-04-12T14:24:34.288Z,28.96
2023-04-12T14:27:05.372Z,28.92
2023-04-12T14:29:35.843Z,28.87
2023-04-12T14:32:05.377Z,28.80
2023-04-12T14:34:35.637Z,28.74
2023-04-12T14:37:05.123Z,28.76
2023-04-12T14:39:34.708Z,28.69
2023-04-12T14:42:04.892Z,28.63
2023-04-12T14:44:34.211Z,28.58
2023-04-12T14:47:03.757Z,28.54
2023-04-12T14:49:33.639Z,28.46
2023-04-12T14:52:04.202Z,28.39
2023-04-12T14:54:33.984Z,28.31
2023-04-12T14:57:05.426Z,28.26
2023-04-12T14:59:35.286Z,28.18
2023-04-12T15:02:05.622Z,28.12
2023-04-12T15:04:35.207Z,28.02
2023-04-12T15:07:05.577Z,27.98
2023-04-12T15:09:35.368Z,27.95
2023-04-12T15:12:05.431Z,27.91
2023-04-12T15:14:35.826Z,27.86
2023-04-12T15:17:05.388Z,27.85
2023-04-12T15:19:34.663Z,27.82
2023-04-12T15:22:04.614Z,27.79
2023-04-12T15:24:34.967Z,27.74
2023-04-12T15:27:06.331Z,27.69
2023-04-12T15:29:40.085Z,27.68
2023-04-12T15:32:10.153Z,27.64
2023-04-12T15:34:39.602Z,27.66
2023-04-12T15:37:09.303Z,27.63
2023-04-12T15:39:38.814Z,27.60
2023-04-12T15:42:09.494Z,27.53
2023-04-12T15:44:38.977Z,27.47
2023-04-12T15:47:11.705Z,27.44
2023-04-12T15:49:42.223Z,27.39
2023-04-12T15:52:11.745Z,27.35
2023-04-12T15:54:44.038Z,27.36
2023-04-12T15:57:13.593Z,27.36
2023-04-12T15:59:43.328Z,27.33
2023-04-12T16:02:16.509Z,27.28
2023-04-12T16:04:48.546Z,27.22
2023-04-12T16:07:20.045Z,27.18
2023-04-12T16:09:50.101Z,27.13
2023-04-12T16:12:20.184Z,27.12
2023-04-12T16:14:51.379Z,27.12
2023-04-12T16:17:22.079Z,27.08
2023-04-12T16:19:52.189Z,27.05
2023-04-12T16:22:21.711Z,26.99
2023-04-12T16:24:51.638Z,26.93
2023-04-12T16:27:23.493Z,26.83
2023-04-12T16:29:54.129Z,26.80
2023-04-12T16:32:23.798Z,26.74
2023-04-12T16:34:53.152Z,26.70
2023-04-12T16:37:23.248Z,26.67
2023-04-12T16:39:53.556Z,26.61
2023-04-12T16:42:25.232Z,26.58
2023-04-12T16:44:54.848Z,26.53
2023-04-12T16:47:25.681Z,26.51
2023-04-12T16:49:56.299Z,26.48
2023-04-12T16:52:26.494Z,26.47
2023-04-12T16:54:55.893Z,26.45
2023-04-12T16:57:26.135Z,26.41
2023-04-12T16:59:57.067Z,26.40
2023-04-12T17:02:27.095Z,26.38
2023-04-12T17:04:56.851Z,26.35
2023-04-12T17:07:26.673Z,26.32
2023-04-12T17:09:57.252Z,26.30
2023-04-12T17:12:26.547Z,26.28
2023-04-12T17:14:55.986Z,26.25
2023-04-12T17:17:25.487Z,26.26
2023-04-12T17:19:55.572Z,26.21
2023-04-12T17:22:24.892Z,26.22
2023-04-12T17:24:54.803Z,26.20
2023-04-12T17:27:24.367Z,26.16
2023-04-12T17:29:54.150Z,26.13
2023-04-12T17:32:23.938Z,26.10
2023-04-12T17:34:55.962Z,26.05
2023-04-12T17:37:26.512Z,26.04
2023-04-12T17:39:56.391Z,26.02
2023-04-12T17:42:27.494Z,25.99
2023-04-12T17:44:57.170Z,25.98
2023-04-12T17:47:27.412Z,25.96
2023-04-12T17:49:57.667Z,25.96
2023-04-12T17:52:27.341Z,25.96
2023-04-12T17:54:56.787Z,25.91
2023-04-12T17:57:29.052Z,25.92
2023-04-12T17:59:59.906Z,25.92
2023-04-12T18:02:30.328Z,25.92
2023-04-12T18:05:00.717Z,25.91
2023-04-12T18:07:31.733Z,25.89
2023-04-12T18:10:03.534Z,25.89
2023-04-12T18:12:33.345Z,25.88
2023-04-12T18:15:05.382Z,25.88
2023-04-12T18:17:34.720Z,25.88
2023-04-12T18:20:06.574Z,25.88
2023-04-12T18:22:36.250Z,25.87
2023-04-12T18:25:06.193Z,25.89
2023-04-12T18:27:35.752Z,25.87
2023-04-12T18:30:06.049Z,25.90
2023-04-12T18:32:36.009Z,25.86
2023-04-12T18:35:06.124Z,25.85
2023-04-12T18:37:35.777Z,25.86
2023-04-12T18:40:08.278Z,25.83
2023-04-12T18:42:38.044Z,25.82
2023-04-12T18:45:07.776Z,25.81
2023-04-12T18:47:40.262Z,25.83
2023-04-12T18:50:10.215Z,25.84
2023-04-12T18:52:40.049Z,25.87
2023-04-12T18:55:10.230Z,25.88
2023-04-12T18:57:39.878Z,25.86
2023-04-12T19:00:15.389Z,25.81
2023-04-12T19:02:46.065Z,25.80
2023-04-12T19:05:15.838Z,25.77
2023-04-12T19:07:45.799Z,25.74
2023-04-12T19:10:15.457Z,25.71
2023-04-12T19:12:45.937Z,25.66
2023-04-12T19:15:15.718Z,25.64
2023-04-12T19:17:45.894Z,25.62
2023-04-12T19:20:15.867Z,25.59
2023-04-12T19:22:45.941Z,25.57
2023-04-12T19:27:46.299Z,25.53
2023-04-12T19:30:18.192Z,25.49
2023-04-12T19:32:48.175Z,25.48
2023-04-12T19:35:17.495Z,25.46
2023-04-12T19:37:47.164Z,25.41
2023-04-12T19:40:16.888Z,25.40
2023-04-12T19:42:47.743Z,25.35
2023-04-12T19:45:17.714Z,25.31
2023-04-12T19:47:47.061Z,25.29
2023-04-12T19:50:18.237Z,25.32
2023-04-12T19:52:49.874Z,25.29
2023-04-12T19:55:22.568Z,25.29
2023-04-12T19:57:52.267Z,25.25
2023-04-12T20:00:24.002Z,25.23
2023-04-12T20:02:55.391Z,25.19
2023-04-12T20:05:25.492Z,25.18
2023-04-12T20:07:57.032Z,25.13
2023-04-12T20:10:26.376Z,25.09
2023-04-12T20:12:56.143Z,25.07
2023-04-12T20:15:25.763Z,25.03
2023-04-12T20:17:55.905Z,25.02
2023-04-12T20:20:25.467Z,24.98
2023-04-12T20:22:54.675Z,24.95
2023-04-12T20:25:24.591Z,24.91
2023-04-12T20:27:54.954Z,24.92
2023-04-12T20:30:25.398Z,24.91
2023-04-12T20:32:56.059Z,24.97
2023-04-12T20:35:25.559Z,24.99
2023-04-12T20:37:55.126Z,25.05
2023-04-12T20:40:28.279Z,25.09
2023-04-12T20:42:57.850Z,25.11
2023-04-12T20:45:28.368Z,25.17
2023-04-12T20:47:57.770Z,25.16
2023-04-12T20:50:27.699Z,25.17
2023-04-12T20:52:57.406Z,25.14
2023-04-12T20:55:35.168Z,25.12
2023-04-12T20:58:05.834Z,25.10
2023-04-12T21:00:37.188Z,25.07
2023-04-12T21:03:07.115Z,25.03
2023-04-12T21:05:36.888Z,25.00
2023-04-12T21:08:08.674Z,24.96
2023-04-12T21:10:39.108Z,24.92
2023-04-12T21:13:08.576Z,24.90
2023-04-12T21:15:37.875Z,24.91
2023-04-12T21:18:08.207Z,24.88
2023-04-12T21:20:37.583Z,24.88
2023-04-12T21:23:08.047Z,24.87
2023-04-12T21:25:37.678Z,24.84
2023-04-12T21:28:08.227Z,24.82
2023-04-12T21:30:38.257Z,24.78
2023-04-12T21:33:07.596Z,24.75
2023-04-12T21:35:36.763Z,24.73
2023-04-12T21:38:06.108Z,24.68
2023-04-12T21:40:38.362Z,24.66
2023-04-12T21:43:09.143Z,24.62
2023-04-12T21:45:38.612Z,24.61
2023-04-12T21:48:07.912Z,24.58
2023-04-12T21:50:38.787Z,24.58
2023-04-12T21:53:08.474Z,24.53
2023-04-12T21:55:37.630Z,24.52
2023-04-12T21:58:07.734Z,24.51
2023-04-12T22:00:38.030Z,24.47
2023-04-12T22:03:07.644Z,24.44
2023-04-12T22:05:37.624Z,24.44
2023-04-12T22:08:08.765Z,24.45
2023-04-12T22:10:38.966Z,24.43
2023-04-12T22:13:11.309Z,24.44
2023-04-12T22:15:41.744Z,24.42
2023-04-12T22:18:13.467Z,24.39
2023-04-12T22:20:43.439Z,24.38
2023-04-12T22:23:12.822Z,24.39
2023-04-12T22:25:42.667Z,24.37
2023-04-12T22:28:13.271Z,24.34
2023-04-12T22:30:42.784Z,24.34
2023-04-12T22:33:14.674Z,24.32
2023-04-12T22:35:44.559Z,24.27
2023-04-12T22:38:15.805Z,24.25
2023-04-12T22:40:45.286Z,24.21
2023-04-12T22:43:19.457Z,24.19
2023-04-12T22:45:50.271Z,24.17
2023-04-12T22:48:21.287Z,24.13
2023-04-12T22:50:51.091Z,24.11
2023-04-12T22:53:20.442Z,24.08
2023-04-12T22:55:49.954Z,24.05
2023-04-12T22:58:19.404Z,24.02
2023-04-12T23:00:52.276Z,24.01
2023-04-12T23:03:22.593Z,23.98
2023-04-12T23:05:52.293Z,23.97
2023-04-12T23:08:22.248Z,23.91
2023-04-12T23:10:51.669Z,23.90
2023-04-12T23:13:21.374Z,23.87
2023-04-12T23:15:51.328Z,23.87
2023-04-12T23:18:20.677Z,23.84
2023-04-12T23:20:52.493Z,23.85
2023-04-12T23:23:24.635Z,23.85
2023-04-12T23:25:54.623Z,23.80
2023-04-12T23:28:27.626Z,23.77
2023-04-12T23:30:59.217Z,23.77
2023-04-12T23:33:29.386Z,23.74
2023-04-12T23:35:59.999Z,23.78
2023-04-12T23:38:39.720Z,23.78
2023-04-12T23:41:11.513Z,23.75
2023-04-12T23:43:41.800Z,23.71
2023-04-12T23:46:12.680Z,23.72
2023-04-12T23:48:42.645Z,23.70
2023-04-12T23:51:11.922Z,23.68
2023-04-12T23:53:41.742Z,23.67
2023-04-12T23:56:11.227Z,23.65
2023-04-12T23:58:40.523Z,23.62
